Pelzer, South Carolina
Current Conditions -  °F | °C
As of 7:47 PM on Monday 24 Nov 2014 (Local Time) from KGYH Reporting Station
Clear Clear  
Wind Chill: 63°   Ceiling: Unl
Heat Index: 63°   Visibility: 10mi
Dew Point: 54°   Wind: 10mph
Humidity: 72%   Direction: 200°SSW
Pressure: 29.87"   Gusts: NA
Location:  34.64°N, 82.46°W
Report Text: KGYH 250047Z 20009KT 10SM CLR 17/12 A2987
Loading
Personal Weather Stations






























Interactive Weather Map New forecast layout! Learn more

10-Day Weather Forecast

Advertisements
Track Severe Weather on mobile